This is the latest recevied weather packets stored in our database for station/object K7LDN-13. If no packets are shown the sender has not sent any weather packets the latest 10 day(s).
| Time | Temp. | Humidity | Pressure | Rain* | Wind** | Luminosity | Snow |
|---|---|---|---|---|---|---|---|
| 1777647665 | 12.22° C | 39% | 1023.4 hPa | 0 mm | - | 391 W/m² | - |
| 1777647361 | 12.22° C | 39% | 1023.4 hPa | 0 mm | - | 374 W/m² | - |
| 1777647059 | 12.22° C | 39% | 1023.6 hPa | 0 mm | - | 355 W/m² | - |
| 1777646755 | 11.67° C | 39% | 1023.4 hPa | 0 mm | - | 339 W/m² | - |
| 1777646450 | 12.78° C | 38% | 1023.3 hPa | 0 mm | - | 326 W/m² | - |
| 1777646147 | 12.22° C | 41% | 1023.4 hPa | 0 mm | - | 316 W/m² | - |
| 1777645844 | 11.11° C | 40% | 1023.4 hPa | 0 mm | - | 303 W/m² | - |
| 1777645541 | 11.67° C | 41% | 1023.2 hPa | 0 mm | - | 289 W/m² | - |
| 1777645237 | 10° C | 43% | 1023.4 hPa | 0 mm | - | 271 W/m² | - |
| 1777644933 | 10.56° C | 43% | 1023.3 hPa | 0 mm | - | 249 W/m² | - |
| 1777644631 | 10° C | 43% | 1023.3 hPa | 0 mm | - | 227 W/m² | - |
| 1777644327 | 10° C | 44% | 1023.3 hPa | 0 mm | - | 202 W/m² | - |
| 1777644023 | 10° C | 43% | 1023.2 hPa | 0 mm | - | 186 W/m² | - |
| 1777643720 | 8.89° C | 45% | 1023.2 hPa | 0 mm | - | 166 W/m² | - |
| 1777643418 | 8.89° C | 45% | 1023 hPa | 0 mm | - | 152 W/m² | - |
| 1777642811 | 8.33° C | 48% | 1022.9 hPa | 0 mm | - | 123 W/m² | - |
| 1777642508 | 7.22° C | 49% | 1023 hPa | 0 mm | - | 115 W/m² | - |
| 1777642204 | 7.22° C | 50% | 1022.9 hPa | 0 mm | - | 105 W/m² | - |
| 1777641901 | 6.67° C | 52% | 1022.7 hPa | 0 mm | - | 94 W/m² | - |
| 1777641296 | 5.56° C | 54% | 1022.7 hPa | 0 mm | - | 74 W/m² | - |
| 1777640083 | 4.44° C | 56% | 1022.4 hPa | 0 mm | - | 32 W/m² | - |
| 1777638870 | 4.44° C | 58% | 1022 hPa | 0 mm | - | 8 W/m² | - |
| 1777638565 | 3.89° C | 60% | 1022 hPa | 0 mm | - | 5 W/m² | - |
| 1777638262 | 4.44° C | 58% | 1021.9 hPa | 0 mm | - | 3 W/m² | - |
| 1777637958 | 4.44° C | 56% | 1022.1 hPa | 0 mm | - | 1 W/m² | - |
* Rain latest hour (hover to see other rain measurements)
** Current wind speed in m/s (hover to see current wind gust speed)